createdAt,value
2019-01-05T00:00:12.116Z,17.93
2019-01-05T00:02:47.320Z,19.80
2019-01-05T00:05:15.339Z,16.07
2019-01-05T00:07:48.904Z,11.20
2019-01-05T00:10:25.680Z,20.47
2019-01-05T00:12:53.689Z,10.37
2019-01-05T00:15:29.129Z,16.10
2019-01-05T00:18:08.737Z,11.83
2019-01-05T00:20:40.223Z,16.37
2019-01-05T00:23:11.319Z,15.47
2019-01-05T00:25:55.889Z,15.60
2019-01-05T00:28:40.767Z,22.13
2019-01-05T00:31:14.539Z,11.30
2019-01-05T00:33:55.305Z,14.67
2019-01-05T00:36:35.627Z,11.10
2019-01-05T00:39:08.768Z,18.00
2019-01-05T00:41:38.195Z,14.43
2019-01-05T00:44:22.702Z,17.63
2019-01-05T00:46:54.645Z,16.47
2019-01-05T00:49:29.444Z,19.47
2019-01-05T00:52:14.003Z,18.40
2019-01-05T00:54:45.986Z,19.53
2019-01-05T00:57:15.059Z,21.80
2019-01-05T00:59:55.129Z,17.80
2019-01-05T01:02:35.108Z,15.77
2019-01-05T01:05:19.807Z,13.60
2019-01-05T01:08:05.759Z,16.37
2019-01-05T01:10:33.726Z,16.13
2019-01-05T01:13:07.280Z,12.00
2019-01-05T01:15:47.904Z,16.63
2019-01-05T01:18:32.200Z,21.70
2019-01-05T01:21:18.618Z,24.43
2019-01-05T01:23:47.225Z,17.77
2019-01-05T01:26:15.428Z,20.80
2019-01-05T01:29:00.017Z,21.20
2019-01-05T01:31:27.890Z,18.23
2019-01-05T01:34:12.305Z,18.07
2019-01-05T01:36:40.338Z,15.37
2019-01-05T01:39:11.175Z,21.00
2019-01-05T01:41:41.882Z,25.47
2019-01-05T01:44:21.685Z,14.60
2019-01-05T01:46:50.502Z,20.90
2019-01-05T01:49:31.510Z,28.30
2019-01-05T01:52:16.722Z,21.23
2019-01-05T01:55:01.459Z,21.70
2019-01-05T01:57:46.781Z,27.90
2019-01-05T02:00:27.158Z,25.27
2019-01-05T02:03:12.124Z,26.00
2019-01-05T02:05:59.982Z,19.70
2019-01-05T02:08:42.387Z,36.87
2019-01-05T02:11:33.189Z,28.13
2019-01-05T02:14:19.122Z,21.27
2019-01-05T02:17:13.553Z,18.10
2019-01-05T02:20:04.318Z,25.07
2019-01-05T02:23:13.509Z,26.53
2019-01-05T02:26:01.564Z,23.53
2019-01-05T02:28:39.087Z,24.40
2019-01-05T02:31:22.530Z,33.70
2019-01-05T02:34:03.022Z,29.43
2019-01-05T02:36:40.674Z,24.90
2019-01-05T02:39:33.078Z,21.57
2019-01-05T02:42:41.901Z,34.97
2019-01-05T02:45:30.264Z,24.20
2019-01-05T02:48:50.143Z,25.70
2019-01-05T02:51:36.840Z,25.80
2019-01-05T02:54:26.098Z,25.80
2019-01-05T02:57:41.579Z,20.50
2019-01-05T03:00:39.962Z,18.03
2019-01-05T03:03:32.612Z,19.03
2019-01-05T03:06:10.164Z,26.10
2019-01-05T03:08:53.397Z,20.37
2019-01-05T03:12:00.981Z,25.23
2019-01-05T03:14:47.871Z,23.90
2019-01-05T03:17:25.436Z,17.60
2019-01-05T03:20:16.847Z,21.57
2019-01-05T03:23:09.536Z,22.47
2019-01-05T03:26:05.060Z,23.23
2019-01-05T03:29:00.152Z,27.57
2019-01-05T03:31:57.067Z,22.50
2019-01-05T03:34:49.264Z,22.73
2019-01-05T03:37:55.793Z,25.43
2019-01-05T03:40:36.683Z,21.97
2019-01-05T03:43:36.530Z,16.50
2019-01-05T03:46:34.926Z,15.73
2019-01-05T03:49:12.094Z,22.13
2019-01-05T03:52:28.538Z,27.47
2019-01-05T03:55:19.729Z,28.80
2019-01-05T03:58:00.196Z,30.30
2019-01-05T04:00:31.892Z,25.80
2019-01-05T04:03:49.835Z,20.80
2019-01-05T04:06:59.302Z,22.67
2019-01-05T04:09:48.314Z,24.80
2019-01-05T04:12:49.394Z,24.07
2019-01-05T04:15:58.398Z,14.80
2019-01-05T04:19:03.437Z,22.40
2019-01-05T04:22:03.255Z,25.80
2019-01-05T04:24:56.237Z,19.90
2019-01-05T04:28:00.408Z,20.80
2019-01-05T04:30:41.139Z,18.97
2019-01-05T04:33:36.859Z,18.93
2019-01-05T04:36:33.602Z,24.10
2019-01-05T04:39:11.142Z,24.97
2019-01-05T04:41:48.280Z,13.60
2019-01-05T04:44:51.682Z,27.60
2019-01-05T04:47:32.234Z,20.97
2019-01-05T04:50:10.062Z,22.63
2019-01-05T04:53:08.822Z,18.60
2019-01-05T04:56:12.198Z,21.83
2019-01-05T04:58:49.718Z,25.50
2019-01-05T05:01:54.306Z,18.07
2019-01-05T05:04:42.771Z,22.20
2019-01-05T05:07:44.548Z,21.50
2019-01-05T05:10:39.663Z,25.20
2019-01-05T05:13:20.502Z,24.23
2019-01-05T05:16:03.654Z,20.43
2019-01-05T05:18:59.038Z,20.37
2019-01-05T05:21:51.178Z,23.93
2019-01-05T05:25:08.532Z,23.83
2019-01-05T05:27:58.309Z,19.00
2019-01-05T05:30:46.526Z,17.00
2019-01-05T05:33:30.411Z,26.37
2019-01-05T05:36:21.964Z,16.77
2019-01-05T05:39:17.543Z,18.20
2019-01-05T05:42:37.175Z,19.90
2019-01-05T05:45:30.930Z,20.20
2019-01-05T05:48:23.319Z,23.23
2019-01-05T05:51:23.182Z,27.23
2019-01-05T05:54:28.398Z,19.83
2019-01-05T05:57:23.882Z,16.10
2019-01-05T06:00:12.127Z,13.97
2019-01-05T06:03:05.081Z,14.97
2019-01-05T06:06:07.943Z,16.77
2019-01-05T06:08:51.079Z,22.17
2019-01-05T06:11:39.077Z,15.23
2019-01-05T06:14:13.846Z,17.80
2019-01-05T06:17:07.895Z,10.87
2019-01-05T06:19:45.218Z,19.20
2019-01-05T06:22:31.815Z,15.90
2019-01-05T06:25:29.899Z,19.20
2019-01-05T06:28:43.831Z,21.83
2019-01-05T06:31:52.879Z,18.53
2019-01-05T06:35:00.964Z,15.37
2019-01-05T06:37:38.682Z,23.50
2019-01-05T06:40:38.966Z,19.53
2019-01-05T06:43:10.698Z,12.87
2019-01-05T06:46:24.306Z,16.63
2019-01-05T06:49:18.733Z,18.90
2019-01-05T06:51:59.222Z,17.67
2019-01-05T06:54:59.039Z,27.67
2019-01-05T06:57:57.255Z,30.60
2019-01-05T07:00:51.787Z,15.47
2019-01-05T07:04:04.270Z,16.03
2019-01-05T07:07:04.722Z,18.07
2019-01-05T07:10:07.948Z,18.73
2019-01-05T07:13:02.715Z,27.00
2019-01-05T07:15:54.880Z,19.93
2019-01-05T07:18:44.274Z,13.27
2019-01-05T07:21:49.018Z,21.77
2019-01-05T07:24:43.401Z,21.93
2019-01-05T07:28:04.765Z,19.37
2019-01-05T07:30:56.107Z,20.30
2019-01-05T07:34:19.130Z,19.77
2019-01-05T07:37:24.393Z,17.03
2019-01-05T07:40:39.218Z,16.90
2019-01-05T07:43:28.534Z,24.13
2019-01-05T07:46:24.202Z,22.87
2019-01-05T07:49:22.973Z,20.60
2019-01-05T07:52:30.972Z,14.73
2019-01-05T07:55:39.056Z,15.97
2019-01-05T07:58:44.442Z,18.53
2019-01-05T08:01:51.910Z,13.60
2019-01-05T08:04:48.910Z,16.77
2019-01-05T08:07:29.719Z,19.33
2019-01-05T08:10:21.895Z,20.83
2019-01-05T08:13:05.012Z,23.17
2019-01-05T08:16:05.329Z,19.90
2019-01-05T08:19:10.014Z,23.97
2019-01-05T08:22:14.793Z,17.90
2019-01-05T08:25:03.787Z,19.03
2019-01-05T08:28:02.071Z,27.73
2019-01-05T08:30:45.359Z,17.03
2019-01-05T08:33:39.632Z,23.77
2019-01-05T08:36:29.094Z,19.60
2019-01-05T08:39:23.577Z,22.33
2019-01-05T08:42:12.996Z,21.90
2019-01-05T08:45:03.488Z,15.57
2019-01-05T08:48:10.970Z,17.80
2019-01-05T08:50:48.587Z,22.20
2019-01-05T08:53:42.415Z,19.07
2019-01-05T08:56:33.163Z,22.60
2019-01-05T08:59:37.826Z,20.93
2019-01-05T09:02:27.506Z,19.50
2019-01-05T09:05:41.717Z,21.17
2019-01-05T09:08:35.504Z,21.13
2019-01-05T09:11:35.001Z,15.07
2019-01-05T09:14:12.850Z,17.50
2019-01-05T09:17:14.964Z,14.00
2019-01-05T09:20:07.902Z,21.40
2019-01-05T09:23:00.383Z,22.47
2019-01-05T09:26:04.966Z,20.60
2019-01-05T09:29:14.099Z,14.50
2019-01-05T09:32:14.681Z,19.03
2019-01-05T09:34:58.499Z,18.43
2019-01-05T09:37:33.330Z,11.50
2019-01-05T09:40:45.775Z,21.10
2019-01-05T09:43:46.131Z,18.60
2019-01-05T09:46:49.606Z,13.40
2019-01-05T09:49:23.903Z,13.53
2019-01-05T09:52:30.214Z,24.33
2019-01-05T09:55:24.235Z,16.20
2019-01-05T09:58:18.657Z,12.00
2019-01-05T10:00:59.316Z,17.67
2019-01-05T10:03:36.992Z,12.90
2019-01-05T10:07:00.612Z,15.70
2019-01-05T10:10:03.707Z,17.97
2019-01-05T10:12:50.463Z,20.27
2019-01-05T10:15:40.140Z,12.60
2019-01-05T10:18:33.086Z,16.93
2019-01-05T10:21:21.643Z,14.43
2019-01-05T10:24:29.863Z,17.13
2019-01-05T10:27:10.667Z,25.37
2019-01-05T10:30:21.847Z,20.67
2019-01-05T10:33:31.392Z,13.13
2019-01-05T10:36:25.935Z,16.87
2019-01-05T10:39:18.925Z,19.23
2019-01-05T10:42:14.794Z,16.97
2019-01-05T10:45:22.638Z,13.43
2019-01-05T10:48:31.918Z,18.87
2019-01-05T10:51:38.671Z,14.77
2019-01-05T10:54:30.942Z,11.17
2019-01-05T10:57:24.773Z,15.43
2019-01-05T11:00:37.253Z,20.40
2019-01-05T11:03:29.293Z,20.20
2019-01-05T11:06:52.548Z,15.60
2019-01-05T11:10:06.742Z,17.30
2019-01-05T11:12:47.186Z,17.70
2019-01-05T11:15:42.022Z,17.70
2019-01-05T11:18:19.490Z,16.70
2019-01-05T11:21:14.847Z,17.13
2019-01-05T11:24:22.029Z,15.47
2019-01-05T11:27:31.549Z,21.93
2019-01-05T11:30:39.439Z,15.60
2019-01-05T11:33:41.230Z,12.43
2019-01-05T11:36:27.411Z,15.67
2019-01-05T11:39:32.632Z,11.70
2019-01-05T11:42:34.526Z,13.47
2019-01-05T11:45:43.487Z,23.00
2019-01-05T11:48:32.778Z,13.60
2019-01-05T11:51:10.533Z,14.73
2019-01-05T11:54:13.859Z,18.37
2019-01-05T11:56:57.388Z,10.27
2019-01-05T11:59:50.295Z,12.40
2019-01-05T12:02:47.246Z,11.20
2019-01-05T12:05:41.640Z,12.37
2019-01-05T12:08:40.720Z,7.33
2019-01-05T12:11:33.819Z,15.00
2019-01-05T12:14:41.943Z,15.70
2019-01-05T12:17:47.962Z,11.93
2019-01-05T12:20:48.367Z,10.30
2019-01-05T12:23:36.819Z,11.83
2019-01-05T12:26:37.115Z,9.07
2019-01-05T12:29:57.251Z,7.73
2019-01-05T12:33:08.378Z,15.50
2019-01-05T12:36:08.431Z,7.33
2019-01-05T12:39:09.964Z,16.40
2019-01-05T12:42:18.622Z,24.93
2019-01-05T12:45:18.712Z,8.13
2019-01-05T12:48:30.578Z,8.60
2019-01-05T12:51:30.961Z,9.50
2019-01-05T12:54:17.531Z,17.73
2019-01-05T12:57:11.994Z,12.30
2019-01-05T13:00:02.446Z,16.13
2019-01-05T13:02:49.178Z,7.53
2019-01-05T13:05:23.776Z,9.10
2019-01-05T13:08:28.309Z,7.30
2019-01-05T13:11:40.782Z,9.33
2019-01-05T13:14:18.611Z,8.87
2019-01-05T13:17:11.363Z,7.90
2019-01-05T13:20:25.399Z,8.33
2019-01-05T13:23:21.078Z,10.73
2019-01-05T13:26:20.875Z,6.20
2019-01-05T13:29:16.323Z,9.67
2019-01-05T13:32:13.082Z,8.43
2019-01-05T13:35:14.620Z,9.97
2019-01-05T13:38:36.205Z,9.03
2019-01-05T13:41:47.214Z,6.80
2019-01-05T13:44:45.355Z,11.53
2019-01-05T13:48:04.055Z,11.43
2019-01-05T13:50:56.410Z,8.63
2019-01-05T13:53:47.787Z,6.13
2019-01-05T13:56:16.843Z,6.60
2019-01-05T13:58:44.843Z,4.23
2019-01-05T14:01:28.063Z,9.50
2019-01-05T14:04:12.205Z,6.87
2019-01-05T14:06:48.985Z,3.00
2019-01-05T14:09:22.414Z,3.60
2019-01-05T14:12:06.479Z,4.87
2019-01-05T14:14:40.313Z,3.30
2019-01-05T14:17:08.230Z,2.77
2019-01-05T14:19:37.196Z,1.80
2019-01-05T14:22:21.309Z,5.70
2019-01-05T14:24:49.431Z,3.97
2019-01-05T14:27:33.842Z,4.00
2019-01-05T14:30:01.921Z,2.60
2019-01-05T14:32:35.895Z,3.37
2019-01-05T14:35:04.298Z,2.23
2019-01-05T14:37:37.910Z,4.00
2019-01-05T14:40:24.494Z,2.63
2019-01-05T14:43:08.804Z,1.50
2019-01-05T14:45:51.690Z,1.47
2019-01-05T14:48:36.121Z,2.63
2019-01-05T14:51:04.037Z,2.43
2019-01-05T14:53:40.450Z,2.60
2019-01-05T14:56:14.233Z,3.10
2019-01-05T14:58:58.383Z,2.40
2019-01-05T15:01:29.044Z,3.37
2019-01-05T15:04:13.923Z,3.10
2019-01-05T15:06:51.275Z,2.67
2019-01-05T15:09:25.431Z,3.93
2019-01-05T15:11:56.335Z,4.10
2019-01-05T15:14:39.202Z,2.20
2019-01-05T15:17:23.651Z,3.50
2019-01-05T15:20:08.281Z,3.13
2019-01-05T15:22:48.616Z,2.20
2019-01-05T15:25:34.319Z,1.87
2019-01-05T15:28:02.216Z,2.90
2019-01-05T15:30:32.653Z,5.47
2019-01-05T15:33:03.805Z,3.27
2019-01-05T15:35:48.528Z,2.90
2019-01-05T15:38:34.360Z,2.20
2019-01-05T15:41:08.210Z,2.90
2019-01-05T15:43:39.752Z,2.83
2019-01-05T15:46:19.557Z,5.33
2019-01-05T15:48:47.483Z,2.47
2019-01-05T15:51:32.118Z,4.20
2019-01-05T15:54:08.972Z,2.93
2019-01-05T15:56:54.620Z,5.03
2019-01-05T15:59:39.046Z,2.40
2019-01-05T16:02:06.958Z,2.10
2019-01-05T16:04:34.898Z,3.20
2019-01-05T16:07:05.568Z,2.47
2019-01-05T16:09:36.178Z,2.10
2019-01-05T16:12:10.450Z,3.43
2019-01-05T16:14:55.894Z,3.80
2019-01-05T16:17:40.211Z,3.80
2019-01-05T16:20:17.497Z,5.93
2019-01-05T16:22:48.227Z,3.27
2019-01-05T16:25:16.246Z,5.10
2019-01-05T16:27:49.986Z,2.23
2019-01-05T16:30:35.750Z,3.53
2019-01-05T16:33:15.511Z,2.77
2019-01-05T16:35:43.512Z,4.13
2019-01-05T16:38:17.483Z,2.80
2019-01-05T16:40:54.204Z,4.00
2019-01-05T16:43:25.028Z,2.10
2019-01-05T16:45:53.143Z,5.57
2019-01-05T16:48:29.842Z,2.73
2019-01-05T16:51:06.755Z,2.90
2019-01-05T16:53:51.425Z,2.90
2019-01-05T16:56:20.914Z,3.10
2019-01-05T16:59:05.378Z,2.60
2019-01-05T17:01:42.183Z,4.13
2019-01-05T17:04:26.618Z,3.03
2019-01-05T17:07:06.482Z,3.17
2019-01-05T17:09:37.175Z,3.30
2019-01-05T17:12:21.490Z,4.60
2019-01-05T17:15:07.500Z,4.40
2019-01-05T17:17:50.398Z,4.10
2019-01-05T17:20:24.099Z,4.63
2019-01-05T17:22:54.643Z,3.47
2019-01-05T17:25:22.673Z,3.50
2019-01-05T17:27:51.790Z,6.20
2019-01-05T17:30:19.844Z,4.73
2019-01-05T17:32:50.711Z,7.53
2019-01-05T17:35:21.522Z,5.60
2019-01-05T17:37:52.278Z,6.80
2019-01-05T17:40:38.157Z,4.83
2019-01-05T17:43:06.210Z,5.30
2019-01-05T17:45:52.290Z,4.60
2019-01-05T17:48:36.854Z,6.40
2019-01-05T17:51:04.979Z,4.00
2019-01-05T17:53:35.663Z,4.60
2019-01-05T17:56:19.470Z,5.80
2019-01-05T17:59:02.617Z,7.30
2019-01-05T18:01:36.487Z,7.40
2019-01-05T18:04:20.932Z,7.00
2019-01-05T18:06:57.737Z,6.30
2019-01-05T18:09:37.682Z,5.50
2019-01-05T18:12:22.301Z,5.60
2019-01-05T18:15:06.948Z,5.97
2019-01-05T18:17:35.029Z,7.70
2019-01-05T18:20:19.680Z,7.63
2019-01-05T18:23:04.447Z,5.47
2019-01-05T18:25:32.487Z,5.00
2019-01-05T18:28:09.519Z,3.37
2019-01-05T18:30:37.668Z,5.90
2019-01-05T18:33:11.499Z,7.20
2019-01-05T18:35:39.525Z,6.00
2019-01-05T18:38:13.419Z,6.57
2019-01-05T18:40:50.412Z,4.20
2019-01-05T18:43:21.146Z,4.70
2019-01-05T18:45:55.017Z,4.90
2019-01-05T18:48:25.982Z,8.60
2019-01-05T18:51:00.035Z,6.70
2019-01-05T18:53:27.981Z,6.97
2019-01-05T18:56:12.798Z,5.30
2019-01-05T18:58:49.916Z,5.60
2019-01-05T19:01:17.842Z,5.00
2019-01-05T19:03:54.520Z,5.67
2019-01-05T19:06:31.252Z,8.27
2019-01-05T19:09:11.032Z,4.13
2019-01-05T19:11:39.150Z,6.00
2019-01-05T19:14:10.047Z,4.93
2019-01-05T19:16:38.108Z,4.70
2019-01-05T19:19:11.880Z,5.33
2019-01-05T19:21:45.488Z,5.50
2019-01-05T19:24:22.437Z,9.40
2019-01-05T19:27:05.154Z,6.37
2019-01-05T19:29:48.016Z,3.83
2019-01-05T19:32:15.975Z,5.77
2019-01-05T19:34:44.001Z,6.67
2019-01-05T19:37:11.995Z,5.10
2019-01-05T19:39:55.253Z,3.93
2019-01-05T19:42:23.262Z,4.83
2019-01-05T19:45:04.102Z,3.27
2019-01-05T19:47:48.431Z,4.33
2019-01-05T19:50:32.899Z,3.63
2019-01-05T19:53:17.195Z,5.17
2019-01-05T19:55:50.991Z,10.93
2019-01-05T19:58:18.922Z,7.00
2019-01-05T20:00:46.890Z,6.70
2019-01-05T20:03:31.532Z,8.40
2019-01-05T20:05:59.515Z,5.30
2019-01-05T20:08:27.586Z,5.30
2019-01-05T20:11:10.226Z,6.50
2019-01-05T20:13:50.095Z,5.73
2019-01-05T20:16:36.308Z,8.80
2019-01-05T20:19:19.370Z,7.80
2019-01-05T20:21:50.182Z,7.60
2019-01-05T20:24:27.262Z,6.90
2019-01-05T20:26:57.855Z,7.87
2019-01-05T20:29:28.400Z,8.53
2019-01-05T20:32:08.270Z,8.60
2019-01-05T20:34:36.358Z,7.33
2019-01-05T20:37:04.480Z,6.40
2019-01-05T20:39:35.282Z,9.97
2019-01-05T20:42:19.646Z,7.30
2019-01-05T20:44:53.348Z,6.60
2019-01-05T20:47:27.341Z,8.33
2019-01-05T20:49:58.286Z,7.70
2019-01-05T20:52:26.237Z,9.07
2019-01-05T20:55:10.381Z,8.23
2019-01-05T20:57:40.918Z,8.23
2019-01-05T21:00:26.162Z,12.20
2019-01-05T21:02:57.124Z,13.53
2019-01-05T21:05:41.564Z,7.60
2019-01-05T21:08:12.281Z,8.77
2019-01-05T21:10:43.039Z,11.40
2019-01-05T21:13:10.996Z,7.80
2019-01-05T21:15:55.346Z,10.33
2019-01-05T21:18:41.670Z,8.47
2019-01-05T21:21:09.711Z,8.97
2019-01-05T21:23:52.559Z,10.10
2019-01-05T21:26:32.611Z,9.90
2019-01-05T21:29:06.179Z,10.10
2019-01-05T21:31:34.146Z,10.20
2019-01-05T21:34:04.643Z,9.57
2019-01-05T21:36:32.580Z,11.50
2019-01-05T21:39:18.767Z,9.60
2019-01-05T21:41:46.716Z,8.00
2019-01-05T21:44:23.358Z,8.77
2019-01-05T21:47:09.200Z,8.23
2019-01-05T21:49:53.982Z,10.47
2019-01-05T21:52:30.844Z,9.30
2019-01-05T21:55:07.721Z,8.20
2019-01-05T21:57:38.466Z,9.60
2019-01-05T22:00:10.475Z,12.30
2019-01-05T22:02:44.432Z,12.63
2019-01-05T22:05:15.030Z,9.43
2019-01-05T22:07:57.889Z,10.90
2019-01-05T22:10:31.424Z,10.93
2019-01-05T22:13:02.235Z,10.73
2019-01-05T22:15:46.343Z,11.40
2019-01-05T22:18:17.039Z,13.63
2019-01-05T22:20:44.985Z,10.10
2019-01-05T22:23:12.925Z,9.57
2019-01-05T22:25:40.906Z,9.40
2019-01-05T22:28:17.886Z,12.47
2019-01-05T22:31:04.115Z,16.07
2019-01-05T22:33:48.709Z,10.57
2019-01-05T22:36:31.589Z,14.13
2019-01-05T22:39:08.451Z,10.73
2019-01-05T22:41:51.408Z,10.67
2019-01-05T22:44:20.385Z,13.53
2019-01-05T22:46:48.554Z,12.03
2019-01-05T22:49:32.833Z,11.30
2019-01-05T22:52:06.658Z,11.07
2019-01-05T22:54:50.985Z,10.50
2019-01-05T22:57:19.002Z,12.27
2019-01-05T23:00:03.313Z,13.63
2019-01-05T23:02:37.034Z,10.17
2019-01-05T23:05:11.547Z,12.93
2019-01-05T23:07:55.771Z,11.90
2019-01-05T23:10:32.320Z,12.70
2019-01-05T23:13:06.152Z,12.73
2019-01-05T23:15:50.209Z,13.07
2019-01-05T23:18:34.566Z,25.93
2019-01-05T23:21:17.430Z,11.00
2019-01-05T23:23:57.046Z,9.40
2019-01-05T23:26:36.947Z,12.70
2019-01-05T23:29:15.053Z,9.73
2019-01-05T23:31:45.715Z,10.93
2019-01-05T23:34:30.263Z,9.33
2019-01-05T23:36:58.235Z,11.27
2019-01-05T23:39:42.445Z,11.47
2019-01-05T23:42:19.228Z,11.20
2019-01-05T23:45:03.933Z,14.30
2019-01-05T23:47:34.524Z,14.90
2019-01-05T23:50:05.484Z,12.30
2019-01-05T23:52:36.104Z,14.30
2019-01-05T23:55:20.477Z,14.43
2019-01-05T23:58:04.715Z,12.40
